BIENTÔT MET'MAP
version 2.0 !

Prévue avant fin octobre,
la nouvelle version sera
plus belle, plus complète
et hébergée sur un serveur
3 fois plus puissant...
et toujours gratuite !


Pas compatible ?
Essayez la version Mobile !

SE CONNECTER : | S'inscrire | Disclaimer | Découvrir Orbifly |
Code OACI :

TAF - LTFJ Sabiha Gokcen - 31 May 2020 03:39 UTC - Data Source NOAA   


- Altitude de l'aérodrome : 312 ft
- Code IATA : SAW
- Pas de NOTAMs connus.


LTFJ - Sabiha Gokcen

Dernier METAR connu : 2015/08/11 07:50 LTFJ 110750Z 20004KT 140V250 9999 SCT020 BKN100 26/21 Q1011 NOSIG
TAF TAF LTFJ
Valide du 31 à 00h jusqu'au 01 à 00h UTC


302240Z 3100/3124 VRB02KT CAVOK
BECMG 3106/3109 24012KT
BECMG 3115/3118 VRB02KT

Source NOAA


MET'MAP, la Météo Aéronautique d'un coup d'oeil ! - Copyright ORBIFLY Décembre 2007

Développement & Programmation : Alexandra Zaïnal
Co-Développement : Marc-Olivier Méhu
Soutien technique & logistique : Manuel Goepfert
Conception & Financement : Baudouin d'Aumeries